createdAt,value
2017-12-28T00:00:01.942Z,985.66
2017-12-28T00:00:27.538Z,985.74
2017-12-28T00:00:53.239Z,985.7
2017-12-28T00:01:18.801Z,985.73
2017-12-28T00:01:44.364Z,985.71
2017-12-28T00:02:10.073Z,985.72
2017-12-28T00:02:35.698Z,985.74
2017-12-28T00:03:01.282Z,985.77
2017-12-28T00:03:26.871Z,985.77
2017-12-28T00:03:52.480Z,985.75
2017-12-28T00:04:18.031Z,985.7
2017-12-28T00:04:43.629Z,985.73
2017-12-28T00:05:09.204Z,985.73
2017-12-28T00:05:34.774Z,985.76
2017-12-28T00:06:00.373Z,985.74
2017-12-28T00:06:25.973Z,985.76
2017-12-28T00:06:51.539Z,985.77
2017-12-28T00:07:17.099Z,985.76
2017-12-28T00:07:42.692Z,985.75
2017-12-28T00:08:08.249Z,985.76
2017-12-28T00:08:33.799Z,985.71
2017-12-28T00:08:59.358Z,985.75
2017-12-28T00:09:24.912Z,985.75
2017-12-28T00:09:50.486Z,985.78
2017-12-28T00:10:16.122Z,985.75
2017-12-28T00:10:41.700Z,985.78
2017-12-28T00:11:07.263Z,985.76
2017-12-28T00:11:32.867Z,985.78
2017-12-28T00:11:58.516Z,985.75
2017-12-28T00:12:24.094Z,985.76
2017-12-28T00:12:49.651Z,985.74
2017-12-28T00:13:15.212Z,985.68
2017-12-28T00:13:40.756Z,985.74
2017-12-28T00:14:06.356Z,985.71
2017-12-28T00:14:31.911Z,985.71
2017-12-28T00:14:57.475Z,985.7
2017-12-28T00:15:23.056Z,985.69
2017-12-28T00:15:48.619Z,985.73
2017-12-28T00:16:14.179Z,985.68
2017-12-28T00:16:39.777Z,985.69
2017-12-28T00:17:05.404Z,985.66
2017-12-28T00:17:30.978Z,985.7
2017-12-28T00:17:56.525Z,985.72
2017-12-28T00:18:22.156Z,985.65
2017-12-28T00:18:47.737Z,985.66
2017-12-28T00:19:13.302Z,985.64
2017-12-28T00:19:38.863Z,985.66
2017-12-28T00:20:04.420Z,985.64
2017-12-28T00:20:29.966Z,985.7
2017-12-28T00:20:55.627Z,985.7
2017-12-28T00:21:21.182Z,985.69
2017-12-28T00:21:46.776Z,985.69
2017-12-28T00:22:12.351Z,985.71
2017-12-28T00:22:37.951Z,985.76
2017-12-28T00:23:03.501Z,985.74
2017-12-28T00:23:29.103Z,985.74
2017-12-28T00:23:54.652Z,985.74
2017-12-28T00:24:20.249Z,985.74
2017-12-28T00:24:45.813Z,985.74
2017-12-28T00:25:11.402Z,985.73
2017-12-28T00:25:36.960Z,985.75
2017-12-28T00:26:02.518Z,985.69
2017-12-28T00:26:28.080Z,985.7
2017-12-28T00:26:53.642Z,985.69
2017-12-28T00:27:19.174Z,985.66
2017-12-28T00:27:44.789Z,985.71
2017-12-28T00:28:10.353Z,985.7
2017-12-28T00:28:35.932Z,985.68
2017-12-28T00:29:01.496Z,985.71
2017-12-28T00:29:27.052Z,985.71
2017-12-28T00:29:52.628Z,985.7
2017-12-28T00:30:18.326Z,985.68
2017-12-28T00:30:43.881Z,985.69
2017-12-28T00:31:09.456Z,985.66
2017-12-28T00:31:35.031Z,985.66
2017-12-28T00:32:00.587Z,985.68
2017-12-28T00:32:26.137Z,985.73
2017-12-28T00:32:51.746Z,985.68
2017-12-28T00:33:17.333Z,985.72
2017-12-28T00:33:42.935Z,985.72
2017-12-28T00:34:08.509Z,985.75
2017-12-28T00:34:34.070Z,985.74
2017-12-28T00:34:59.630Z,985.75
2017-12-28T00:35:25.213Z,985.72
2017-12-28T00:35:50.780Z,985.72
2017-12-28T00:36:16.360Z,985.69
2017-12-28T00:36:41.991Z,985.74
2017-12-28T00:37:07.537Z,985.75
2017-12-28T00:37:33.122Z,985.71
2017-12-28T00:37:58.765Z,985.71
2017-12-28T00:38:24.337Z,985.71
2017-12-28T00:38:49.887Z,985.74
2017-12-28T00:39:15.475Z,985.73
2017-12-28T00:39:41.008Z,985.74
2017-12-28T00:40:06.574Z,985.72
2017-12-28T00:40:32.139Z,985.74
2017-12-28T00:40:57.699Z,985.75
2017-12-28T00:41:23.273Z,985.74
2017-12-28T00:41:48.888Z,985.72
2017-12-28T00:42:14.451Z,985.78
2017-12-28T00:42:40.024Z,985.76
2017-12-28T00:43:05.658Z,985.75
2017-12-28T00:43:31.194Z,985.77
2017-12-28T00:43:56.740Z,985.78
2017-12-28T00:44:22.333Z,985.7
2017-12-28T00:44:48.007Z,985.71
2017-12-28T00:45:13.576Z,985.7
2017-12-28T00:45:39.133Z,985.73
2017-12-28T00:46:04.672Z,985.7
2017-12-28T00:46:30.228Z,985.73
2017-12-28T00:46:55.772Z,985.76
2017-12-28T00:47:21.466Z,985.74
2017-12-28T00:47:47.087Z,985.7
2017-12-28T00:48:12.681Z,985.71
2017-12-28T00:48:38.225Z,985.72
2017-12-28T00:49:03.795Z,985.72
2017-12-28T00:49:29.354Z,985.72
2017-12-28T00:49:54.897Z,985.71
2017-12-28T00:50:20.447Z,985.73
2017-12-28T00:50:46.018Z,985.68
2017-12-28T00:51:11.661Z,985.66
2017-12-28T00:51:37.217Z,985.71
2017-12-28T00:52:02.781Z,985.71
2017-12-28T00:52:28.417Z,985.72
2017-12-28T00:52:53.965Z,985.7
2017-12-28T00:53:19.583Z,985.7
2017-12-28T00:53:45.188Z,985.73
2017-12-28T00:54:10.756Z,985.76
2017-12-28T00:54:36.318Z,985.77
2017-12-28T00:55:01.877Z,985.75
2017-12-28T00:55:27.453Z,985.76
2017-12-28T00:55:53.018Z,985.78
2017-12-28T00:56:18.623Z,985.82
2017-12-28T00:56:44.179Z,985.84
2017-12-28T00:57:09.743Z,985.78
2017-12-28T00:57:35.314Z,985.76
2017-12-28T00:58:00.890Z,985.83
2017-12-28T00:58:26.440Z,985.82
2017-12-28T00:58:51.998Z,985.76
2017-12-28T00:59:17.553Z,985.74
2017-12-28T00:59:43.140Z,985.76
2017-12-28T01:00:08.763Z,985.76
2017-12-28T01:00:34.373Z,985.79
2017-12-28T01:00:59.962Z,985.79
2017-12-28T01:01:25.532Z,985.77
2017-12-28T01:01:51.095Z,985.84
2017-12-28T01:02:16.679Z,985.83
2017-12-28T01:02:42.264Z,985.89
2017-12-28T01:03:07.833Z,985.87
2017-12-28T01:03:33.389Z,985.85
2017-12-28T01:03:58.968Z,985.86
2017-12-28T01:04:24.535Z,985.84
2017-12-28T01:04:50.089Z,985.89
2017-12-28T01:05:15.673Z,985.92
2017-12-28T01:05:41.228Z,985.91
2017-12-28T01:06:06.818Z,985.9
2017-12-28T01:06:32.397Z,985.88
2017-12-28T01:06:58.045Z,985.89
2017-12-28T01:07:23.638Z,985.89
2017-12-28T01:07:49.196Z,985.89
2017-12-28T01:08:14.769Z,985.88
2017-12-28T01:08:40.332Z,985.9
2017-12-28T01:09:05.895Z,985.87
2017-12-28T01:09:31.457Z,985.89
2017-12-28T01:09:57.012Z,985.94
2017-12-28T01:10:22.661Z,985.92
2017-12-28T01:10:48.275Z,985.94
2017-12-28T01:11:13.856Z,985.95
2017-12-28T01:11:39.429Z,985.96
2017-12-28T01:12:05.001Z,985.94
2017-12-28T01:12:30.572Z,985.97
2017-12-28T01:12:56.195Z,985.97
2017-12-28T01:13:21.889Z,986
2017-12-28T01:13:47.483Z,985.98
2017-12-28T01:14:13.061Z,985.97
2017-12-28T01:14:38.651Z,985.99
2017-12-28T01:15:04.304Z,985.99
2017-12-28T01:15:29.879Z,986.03
2017-12-28T01:15:55.487Z,986.03
2017-12-28T01:16:21.041Z,986.01
2017-12-28T01:16:46.597Z,986.02
2017-12-28T01:17:12.178Z,986.04
2017-12-28T01:17:37.752Z,986.04
2017-12-28T01:18:03.415Z,986.01
2017-12-28T01:18:28.974Z,986.04
2017-12-28T01:18:54.553Z,986.08
2017-12-28T01:19:20.178Z,986.04
2017-12-28T01:19:45.774Z,986.01
2017-12-28T01:20:11.326Z,986.07
2017-12-28T01:20:36.862Z,986.06
2017-12-28T01:21:02.445Z,986.07
2017-12-28T01:21:28.005Z,986.03
2017-12-28T01:21:53.575Z,986.07
2017-12-28T01:22:19.146Z,986.08
2017-12-28T01:22:44.698Z,986.04
2017-12-28T01:23:10.268Z,986.05
2017-12-28T01:23:35.822Z,986.06
2017-12-28T01:24:01.379Z,986.09
2017-12-28T01:24:26.956Z,986.09
2017-12-28T01:24:52.522Z,986.12
2017-12-28T01:25:18.079Z,986.12
2017-12-28T01:25:43.668Z,986.09
2017-12-28T01:26:09.218Z,986.08
2017-12-28T01:26:34.829Z,986.12
2017-12-28T01:27:00.391Z,986.15
2017-12-28T01:27:26.082Z,986.19
2017-12-28T01:27:51.632Z,986.22
2017-12-28T01:28:17.178Z,986.16
2017-12-28T01:28:42.749Z,986.22
2017-12-28T01:29:08.331Z,986.17
2017-12-28T01:29:33.889Z,986.15
2017-12-28T01:29:59.446Z,986.21
2017-12-28T01:30:25.023Z,986.21
2017-12-28T01:30:50.586Z,986.14
2017-12-28T01:31:16.150Z,986.13
2017-12-28T01:31:41.696Z,986.17
2017-12-28T01:32:07.262Z,986.18
2017-12-28T01:32:32.817Z,986.2
2017-12-28T01:32:58.369Z,986.2
2017-12-28T01:33:23.947Z,986.24
2017-12-28T01:33:49.513Z,986.22
2017-12-28T01:34:15.077Z,986.21
2017-12-28T01:34:40.647Z,986.18
2017-12-28T01:35:06.178Z,986.21
2017-12-28T01:35:31.766Z,986.19
2017-12-28T01:35:57.328Z,986.19
2017-12-28T01:36:22.879Z,986.24
2017-12-28T01:36:48.448Z,986.25
2017-12-28T01:37:14.036Z,986.2
2017-12-28T01:37:39.577Z,986.25
2017-12-28T01:38:05.143Z,986.18
2017-12-28T01:38:30.857Z,986.25
2017-12-28T01:38:56.417Z,986.25
2017-12-28T01:39:21.983Z,986.24
2017-12-28T01:39:47.542Z,986.24
2017-12-28T01:40:13.122Z,986.27
2017-12-28T01:40:38.659Z,986.26
2017-12-28T01:41:04.220Z,986.27
2017-12-28T01:41:29.779Z,986.29
2017-12-28T01:41:55.470Z,986.3
2017-12-28T01:42:20.992Z,986.25
2017-12-28T01:42:46.550Z,986.26
2017-12-28T01:43:12.110Z,986.24
2017-12-28T01:43:37.685Z,986.33
2017-12-28T01:44:03.254Z,986.35
2017-12-28T01:44:28.888Z,986.35
2017-12-28T01:44:54.474Z,986.4
2017-12-28T01:45:20.078Z,986.36
2017-12-28T01:45:45.626Z,986.44
2017-12-28T01:46:11.200Z,986.43
2017-12-28T01:46:36.755Z,986.42
2017-12-28T01:47:02.315Z,986.4
2017-12-28T01:47:27.908Z,986.4
2017-12-28T01:47:53.477Z,986.38
2017-12-28T01:48:19.042Z,986.36
2017-12-28T01:48:44.599Z,986.42
2017-12-28T01:49:10.178Z,986.39
2017-12-28T01:49:35.746Z,986.42
2017-12-28T01:50:01.311Z,986.42
2017-12-28T01:50:26.985Z,986.42
2017-12-28T01:50:52.556Z,986.48
2017-12-28T01:51:18.112Z,986.5
2017-12-28T01:51:43.704Z,986.51
2017-12-28T01:52:09.268Z,986.53
2017-12-28T01:52:34.835Z,986.58
2017-12-28T01:53:00.384Z,986.61
2017-12-28T01:53:25.943Z,986.62
2017-12-28T01:53:51.570Z,986.62
2017-12-28T01:54:17.150Z,986.62
2017-12-28T01:54:42.710Z,986.62
2017-12-28T01:55:08.288Z,986.63
2017-12-28T01:55:33.828Z,986.62
2017-12-28T01:55:59.379Z,986.64
2017-12-28T01:56:24.968Z,986.67
2017-12-28T01:56:50.594Z,986.66
2017-12-28T01:57:16.095Z,986.63
2017-12-28T01:57:41.780Z,986.69
2017-12-28T01:58:07.350Z,986.66
2017-12-28T01:58:32.914Z,986.68
2017-12-28T01:58:58.485Z,986.7
2017-12-28T01:59:24.138Z,986.68
2017-12-28T01:59:49.692Z,986.71
2017-12-28T02:00:15.254Z,986.68
2017-12-28T02:00:40.811Z,986.66
2017-12-28T02:01:06.382Z,986.65
2017-12-28T02:01:31.945Z,986.65
2017-12-28T02:01:57.602Z,986.66
2017-12-28T02:02:23.176Z,986.74
2017-12-28T02:02:48.757Z,986.67
2017-12-28T02:03:14.309Z,986.71
2017-12-28T02:03:39.912Z,986.76
2017-12-28T02:04:05.480Z,986.74
2017-12-28T02:04:31.050Z,986.76
2017-12-28T02:04:56.617Z,986.77
2017-12-28T02:05:22.180Z,986.75
2017-12-28T02:05:47.789Z,986.72
2017-12-28T02:06:13.366Z,986.78
2017-12-28T02:06:38.925Z,986.81
2017-12-28T02:07:04.508Z,986.77
2017-12-28T02:07:30.080Z,986.78
2017-12-28T02:07:55.634Z,986.8
2017-12-28T02:08:21.217Z,986.84
2017-12-28T02:08:46.853Z,986.77
2017-12-28T02:09:12.421Z,986.78
2017-12-28T02:09:37.976Z,986.78
2017-12-28T02:10:03.545Z,986.83
2017-12-28T02:10:29.100Z,986.83
2017-12-28T02:10:54.670Z,986.92
2017-12-28T02:11:20.217Z,986.94
2017-12-28T02:11:45.775Z,986.89
2017-12-28T02:12:11.336Z,986.92
2017-12-28T02:12:36.910Z,986.94
2017-12-28T02:13:02.448Z,987
2017-12-28T02:13:27.990Z,987.03
2017-12-28T02:13:53.544Z,986.95
2017-12-28T02:14:19.098Z,986.94
2017-12-28T02:14:44.648Z,987.01
2017-12-28T02:15:10.218Z,987
2017-12-28T02:15:35.785Z,986.97
2017-12-28T02:16:01.500Z,987.04
2017-12-28T02:16:27.219Z,987.11
2017-12-28T02:16:52.792Z,987.07
2017-12-28T02:17:18.336Z,987.08
2017-12-28T02:17:43.953Z,987.09
2017-12-28T02:18:09.525Z,987.14
2017-12-28T02:18:35.087Z,987.12
2017-12-28T02:19:00.664Z,987.16
2017-12-28T02:19:26.246Z,987.18
2017-12-28T02:19:51.807Z,987.2
2017-12-28T02:20:17.382Z,987.17
2017-12-28T02:20:43.003Z,987.2
2017-12-28T02:21:08.569Z,987.18
2017-12-28T02:21:34.166Z,987.23
2017-12-28T02:21:59.740Z,987.21
2017-12-28T02:22:25.317Z,987.27
2017-12-28T02:22:50.879Z,987.24
2017-12-28T02:23:16.442Z,987.24
2017-12-28T02:23:41.999Z,987.24
2017-12-28T02:24:07.537Z,987.26
2017-12-28T02:24:33.140Z,987.24
2017-12-28T02:24:58.708Z,987.29
2017-12-28T02:25:24.352Z,987.33
2017-12-28T02:25:49.919Z,987.32
2017-12-28T02:26:15.460Z,987.32
2017-12-28T02:26:41.066Z,987.33
2017-12-28T02:27:06.657Z,987.37
2017-12-28T02:27:32.232Z,987.38
2017-12-28T02:27:57.766Z,987.42
2017-12-28T02:28:23.325Z,987.45
2017-12-28T02:28:48.912Z,987.46
2017-12-28T02:29:14.528Z,987.47
2017-12-28T02:29:40.198Z,987.44
2017-12-28T02:30:05.747Z,987.41
2017-12-28T02:30:31.299Z,987.47
2017-12-28T02:30:56.840Z,987.41
2017-12-28T02:31:22.437Z,987.45
2017-12-28T02:31:47.996Z,987.49
2017-12-28T02:32:13.596Z,987.46
2017-12-28T02:32:39.155Z,987.45
2017-12-28T02:33:04.705Z,987.45
2017-12-28T02:33:30.282Z,987.44
2017-12-28T02:33:55.838Z,987.5
2017-12-28T02:34:21.419Z,987.5
2017-12-28T02:34:47.009Z,987.49
2017-12-28T02:35:12.571Z,987.46
2017-12-28T02:35:38.130Z,987.51
2017-12-28T02:36:03.706Z,987.56
2017-12-28T02:36:29.285Z,987.54
2017-12-28T02:36:54.879Z,987.59
2017-12-28T02:37:20.554Z,987.6
2017-12-28T02:37:46.128Z,987.56
2017-12-28T02:38:11.689Z,987.66
2017-12-28T02:38:37.259Z,987.64
2017-12-28T02:39:02.817Z,987.63
2017-12-28T02:39:28.393Z,987.61
2017-12-28T02:39:54.061Z,987.64
2017-12-28T02:40:19.572Z,987.72
2017-12-28T02:40:45.177Z,987.66
2017-12-28T02:41:10.737Z,987.67
2017-12-28T02:41:36.300Z,987.66
2017-12-28T02:42:01.854Z,987.72
2017-12-28T02:42:27.424Z,987.73
2017-12-28T02:42:52.994Z,987.75
2017-12-28T02:43:18.552Z,987.76
2017-12-28T02:43:44.141Z,987.77
2017-12-28T02:44:09.711Z,987.78
2017-12-28T02:44:35.305Z,987.83
2017-12-28T02:45:00.855Z,987.78
2017-12-28T02:45:26.553Z,987.83
2017-12-28T02:45:52.115Z,987.87
2017-12-28T02:46:17.692Z,987.89
2017-12-28T02:46:43.269Z,987.89
2017-12-28T02:47:08.833Z,987.85
2017-12-28T02:47:34.371Z,987.85
2017-12-28T02:47:59.914Z,987.89
2017-12-28T02:48:25.482Z,987.91
2017-12-28T02:48:51.047Z,987.92
2017-12-28T02:49:16.630Z,987.95
2017-12-28T02:49:42.205Z,987.92
2017-12-28T02:50:07.779Z,987.92
2017-12-28T02:50:33.442Z,987.93
2017-12-28T02:50:59.011Z,987.91
2017-12-28T02:51:24.571Z,987.91
2017-12-28T02:51:50.124Z,987.97
2017-12-28T02:52:15.692Z,987.96
2017-12-28T02:52:41.259Z,987.96
2017-12-28T02:53:06.923Z,987.95
2017-12-28T02:53:32.487Z,988
2017-12-28T02:53:58.049Z,988.02
2017-12-28T02:54:23.669Z,988
2017-12-28T02:54:49.230Z,988.04
2017-12-28T02:55:14.791Z,988.04
2017-12-28T02:55:40.340Z,988
2017-12-28T02:56:05.900Z,988.05
2017-12-28T02:56:31.474Z,988.06
2017-12-28T02:56:57.066Z,988.09
2017-12-28T02:57:22.619Z,988.07
2017-12-28T02:57:48.186Z,988.11
2017-12-28T02:58:13.737Z,988.11
2017-12-28T02:58:39.314Z,988.12
2017-12-28T02:59:04.878Z,988.12
2017-12-28T02:59:30.534Z,988.12
2017-12-28T02:59:56.118Z,988.11
2017-12-28T03:00:21.692Z,988.12
2017-12-28T03:00:47.344Z,988.15
2017-12-28T03:01:12.912Z,988.14
2017-12-28T03:01:38.481Z,988.11
2017-12-28T03:02:04.036Z,988.16
2017-12-28T03:02:29.609Z,988.2
2017-12-28T03:02:55.160Z,988.23
2017-12-28T03:03:20.738Z,988.17
2017-12-28T03:03:46.291Z,988.23
2017-12-28T03:04:11.878Z,988.26
2017-12-28T03:04:37.421Z,988.31
2017-12-28T03:05:03.123Z,988.34
2017-12-28T03:05:28.686Z,988.31
2017-12-28T03:05:54.238Z,988.31
2017-12-28T03:06:19.832Z,988.34
2017-12-28T03:06:45.385Z,988.34
2017-12-28T03:07:11.074Z,988.31
2017-12-28T03:07:36.637Z,988.28
2017-12-28T03:08:02.206Z,988.3
2017-12-28T03:08:27.789Z,988.32
2017-12-28T03:08:53.458Z,988.33
2017-12-28T03:09:19.061Z,988.31
2017-12-28T03:09:44.607Z,988.33
2017-12-28T03:10:10.171Z,988.33
2017-12-28T03:10:35.742Z,988.31
2017-12-28T03:11:01.307Z,988.34
2017-12-28T03:11:26.852Z,988.31
2017-12-28T03:11:52.437Z,988.34
2017-12-28T03:12:17.989Z,988.33
2017-12-28T03:12:43.535Z,988.36
2017-12-28T03:13:09.109Z,988.36
2017-12-28T03:13:34.710Z,988.38
2017-12-28T03:14:00.237Z,988.39
2017-12-28T03:14:25.810Z,988.41
2017-12-28T03:14:51.372Z,988.42
2017-12-28T03:15:16.966Z,988.46
2017-12-28T03:15:42.509Z,988.41
2017-12-28T03:16:08.070Z,988.44
2017-12-28T03:16:33.630Z,988.46
2017-12-28T03:16:59.218Z,988.48
2017-12-28T03:17:24.804Z,988.44
2017-12-28T03:17:50.336Z,988.46
2017-12-28T03:18:15.910Z,988.48
2017-12-28T03:18:41.482Z,988.47
2017-12-28T03:19:07.071Z,988.47
2017-12-28T03:19:32.649Z,988.49
2017-12-28T03:19:58.210Z,988.48
2017-12-28T03:20:23.801Z,988.48
2017-12-28T03:20:49.509Z,988.51
2017-12-28T03:21:15.050Z,988.47
2017-12-28T03:21:40.610Z,988.47
2017-12-28T03:22:06.209Z,988.5
2017-12-28T03:22:31.815Z,988.51
2017-12-28T03:22:57.402Z,988.52
2017-12-28T03:23:22.958Z,988.55
2017-12-28T03:23:48.512Z,988.52
2017-12-28T03:24:14.078Z,988.56
2017-12-28T03:24:39.631Z,988.59
2017-12-28T03:25:05.207Z,988.57
2017-12-28T03:25:30.797Z,988.59
2017-12-28T03:25:56.350Z,988.54
2017-12-28T03:26:21.911Z,988.58
2017-12-28T03:26:47.493Z,988.57
2017-12-28T03:27:13.103Z,988.6
2017-12-28T03:27:38.674Z,988.6
2017-12-28T03:28:04.223Z,988.61
2017-12-28T03:28:29.827Z,988.61
2017-12-28T03:28:55.487Z,988.63
2017-12-28T03:29:21.040Z,988.64
2017-12-28T03:29:46.620Z,988.67
2017-12-28T03:30:12.174Z,988.69
2017-12-28T03:30:37.735Z,988.68
2017-12-28T03:31:03.296Z,988.72
2017-12-28T03:31:28.968Z,988.68
2017-12-28T03:31:54.538Z,988.71
2017-12-28T03:32:20.087Z,988.74
2017-12-28T03:32:45.631Z,988.73
2017-12-28T03:33:11.209Z,988.76
2017-12-28T03:33:36.747Z,988.77
2017-12-28T03:34:02.301Z,988.77
2017-12-28T03:34:27.838Z,988.81
2017-12-28T03:34:53.492Z,988.84
2017-12-28T03:35:19.081Z,988.77
2017-12-28T03:35:44.624Z,988.78
2017-12-28T03:36:10.182Z,988.79
2017-12-28T03:36:35.761Z,988.85
2017-12-28T03:37:01.308Z,988.82
2017-12-28T03:37:26.953Z,988.87
2017-12-28T03:37:52.519Z,988.85
2017-12-28T03:38:18.103Z,988.92
2017-12-28T03:38:43.719Z,988.93
2017-12-28T03:39:09.297Z,988.96
2017-12-28T03:39:34.837Z,988.92
2017-12-28T03:40:00.398Z,988.92
2017-12-28T03:40:25.969Z,988.9
2017-12-28T03:40:51.517Z,989
2017-12-28T03:41:17.085Z,989.01
2017-12-28T03:41:42.756Z,988.97
2017-12-28T03:42:08.335Z,988.97
2017-12-28T03:42:33.904Z,989.02
2017-12-28T03:42:59.466Z,989
2017-12-28T03:43:25.036Z,988.98
2017-12-28T03:43:50.602Z,989.01
2017-12-28T03:44:16.207Z,988.99
2017-12-28T03:44:41.741Z,988.94
2017-12-28T03:45:07.325Z,989.03
2017-12-28T03:45:32.992Z,988.99
2017-12-28T03:45:58.572Z,988.93
2017-12-28T03:46:24.139Z,988.97
2017-12-28T03:46:49.702Z,988.97
2017-12-28T03:47:15.274Z,989.01
2017-12-28T03:47:40.853Z,989
2017-12-28T03:48:06.458Z,988.99
2017-12-28T03:48:32.049Z,989.07
2017-12-28T03:48:57.619Z,989.06
2017-12-28T03:49:23.202Z,989.05
2017-12-28T03:49:48.776Z,989.1
2017-12-28T03:50:14.346Z,989.09
2017-12-28T03:50:39.905Z,989.11
2017-12-28T03:51:05.472Z,989.08
2017-12-28T03:51:31.047Z,989.12
2017-12-28T03:51:56.605Z,989.14
2017-12-28T03:53:10.555Z,989.18
2017-12-28T03:53:36.052Z,989.19
2017-12-28T03:54:34.594Z,989.22
2017-12-28T03:55:00.191Z,989.24
2017-12-28T03:55:25.728Z,989.27
2017-12-28T03:55:51.306Z,989.34
2017-12-28T03:56:16.853Z,989.35
2017-12-28T03:56:42.411Z,989.32
2017-12-28T03:57:08.002Z,989.35
2017-12-28T03:57:33.583Z,989.33
2017-12-28T03:57:59.124Z,989.35
2017-12-28T03:58:24.669Z,989.3
2017-12-28T03:58:50.290Z,989.32
2017-12-28T03:59:15.869Z,989.36
2017-12-28T03:59:41.440Z,989.35
2017-12-28T04:00:07.000Z,989.4
2017-12-28T04:00:32.566Z,989.39
2017-12-28T04:00:58.117Z,989.36
2017-12-28T04:01:23.721Z,989.36
2017-12-28T04:01:49.281Z,989.35
2017-12-28T04:02:14.898Z,989.35
2017-12-28T04:02:40.482Z,989.34
2017-12-28T04:03:06.003Z,989.36
2017-12-28T04:03:31.562Z,989.32
2017-12-28T04:03:57.152Z,989.37
2017-12-28T04:04:22.713Z,989.37
2017-12-28T04:04:48.264Z,989.39
2017-12-28T04:05:13.846Z,989.38
2017-12-28T04:05:39.392Z,989.38
2017-12-28T04:06:04.944Z,989.42
2017-12-28T04:06:30.514Z,989.43
2017-12-28T04:06:56.081Z,989.42
2017-12-28T04:07:21.796Z,989.43
2017-12-28T04:07:47.320Z,989.47
2017-12-28T04:08:12.903Z,989.46
2017-12-28T04:08:38.502Z,989.46
2017-12-28T04:09:04.085Z,989.5
2017-12-28T04:09:29.652Z,989.48
2017-12-28T04:09:55.210Z,989.47
2017-12-28T04:10:20.778Z,989.47
2017-12-28T04:10:46.389Z,989.45
2017-12-28T04:11:11.962Z,989.46
2017-12-28T04:11:37.620Z,989.51
2017-12-28T04:12:03.186Z,989.49
2017-12-28T04:12:28.751Z,989.52
2017-12-28T04:12:54.364Z,989.46
2017-12-28T04:13:19.937Z,989.46
2017-12-28T04:13:45.494Z,989.48
2017-12-28T04:14:11.070Z,989.48
2017-12-28T04:14:36.677Z,989.47
2017-12-28T04:15:02.234Z,989.52
2017-12-28T04:15:27.784Z,989.51
2017-12-28T04:15:53.354Z,989.51
2017-12-28T04:16:18.908Z,989.54
2017-12-28T04:16:44.469Z,989.57
2017-12-28T04:17:10.055Z,989.55
2017-12-28T04:17:35.611Z,989.54
2017-12-28T04:18:01.167Z,989.6
2017-12-28T04:18:26.715Z,989.64
2017-12-28T04:18:52.283Z,989.63
2017-12-28T04:19:17.993Z,989.64
2017-12-28T04:19:43.556Z,989.67
2017-12-28T04:20:09.103Z,989.65
2017-12-28T04:20:34.650Z,989.65
2017-12-28T04:21:00.226Z,989.66
2017-12-28T04:21:25.769Z,989.61
2017-12-28T04:21:51.334Z,989.65
2017-12-28T04:22:16.900Z,989.68
2017-12-28T04:22:42.470Z,989.71
2017-12-28T04:23:08.102Z,989.7
2017-12-28T04:23:33.674Z,989.73
2017-12-28T04:23:59.225Z,989.65
2017-12-28T04:24:24.780Z,989.71
2017-12-28T04:24:50.349Z,989.71
2017-12-28T04:25:15.895Z,989.71
2017-12-28T04:25:41.584Z,989.69
2017-12-28T04:26:07.175Z,989.68
2017-12-28T04:26:32.748Z,989.69
2017-12-28T04:26:58.286Z,989.68
2017-12-28T04:27:23.998Z,989.69
2017-12-28T04:27:49.551Z,989.7
2017-12-28T04:28:15.120Z,989.7
2017-12-28T04:28:40.673Z,989.72
2017-12-28T04:29:06.319Z,989.68
2017-12-28T04:29:31.878Z,989.75
2017-12-28T04:29:57.452Z,989.72
2017-12-28T04:30:23.020Z,989.76
2017-12-28T04:30:48.615Z,989.77
2017-12-28T04:31:14.175Z,989.77
2017-12-28T04:31:39.750Z,989.77
2017-12-28T04:32:05.322Z,989.76
2017-12-28T04:32:30.915Z,989.79
2017-12-28T04:32:56.484Z,989.8
2017-12-28T04:33:22.047Z,989.82
2017-12-28T04:33:47.593Z,989.84
2017-12-28T04:34:13.252Z,989.84
2017-12-28T04:34:38.804Z,989.84
2017-12-28T04:35:04.371Z,989.88
2017-12-28T04:35:29.986Z,989.9
2017-12-28T04:35:55.568Z,989.86
2017-12-28T04:36:21.144Z,989.83
2017-12-28T04:36:46.706Z,989.82
2017-12-28T04:37:12.256Z,989.84
2017-12-28T04:37:37.839Z,989.76
2017-12-28T04:38:03.391Z,989.78
2017-12-28T04:38:28.979Z,989.74
2017-12-28T04:38:54.539Z,989.73
2017-12-28T04:39:20.117Z,989.79
2017-12-28T04:39:45.687Z,989.82
2017-12-28T04:40:11.252Z,989.82
2017-12-28T04:40:36.812Z,989.81
2017-12-28T04:41:02.371Z,989.76
2017-12-28T04:41:27.946Z,989.75
2017-12-28T04:41:53.606Z,989.79
2017-12-28T04:42:19.182Z,989.77
2017-12-28T04:42:44.740Z,989.77
2017-12-28T04:43:10.354Z,989.78
2017-12-28T04:43:35.979Z,989.76
2017-12-28T04:44:01.544Z,989.81
2017-12-28T04:44:27.094Z,989.73
2017-12-28T04:44:52.656Z,989.76
2017-12-28T04:45:18.218Z,989.77
2017-12-28T04:45:43.790Z,989.81
2017-12-28T04:46:09.342Z,989.82
2017-12-28T04:46:34.898Z,989.84
2017-12-28T04:47:00.471Z,989.84
2017-12-28T04:47:26.042Z,989.84
2017-12-28T04:47:51.592Z,989.89
2017-12-28T04:48:17.149Z,989.9
2017-12-28T04:48:42.706Z,989.91
2017-12-28T04:49:08.279Z,989.95
2017-12-28T04:49:33.886Z,989.93
2017-12-28T04:49:59.440Z,989.97
2017-12-28T04:50:25.011Z,989.97
2017-12-28T04:50:50.691Z,989.99
2017-12-28T04:51:16.284Z,989.99
2017-12-28T04:51:41.876Z,990.05
2017-12-28T04:52:07.433Z,990.03
2017-12-28T04:52:32.976Z,990.04
2017-12-28T04:52:58.546Z,990.07
2017-12-28T04:53:24.113Z,990.14
2017-12-28T04:53:49.828Z,990.09
2017-12-28T04:54:15.381Z,990.16
2017-12-28T04:54:40.958Z,990.16
2017-12-28T04:55:06.581Z,990.18
2017-12-28T04:55:32.148Z,990.18
2017-12-28T04:55:57.713Z,990.22
2017-12-28T04:56:23.275Z,990.18
2017-12-28T04:56:48.847Z,990.17
2017-12-28T04:57:14.414Z,990.21
2017-12-28T04:57:39.977Z,990.21
2017-12-28T04:58:05.534Z,990.22
2017-12-28T04:58:31.078Z,990.2
2017-12-28T04:58:56.638Z,990.22
2017-12-28T04:59:22.187Z,990.24
2017-12-28T04:59:47.837Z,990.22
2017-12-28T05:00:13.412Z,990.2
2017-12-28T05:00:38.966Z,990.26
2017-12-28T05:01:04.568Z,990.3
2017-12-28T05:01:30.138Z,990.29
2017-12-28T05:01:55.811Z,990.3
2017-12-28T05:02:21.387Z,990.3
2017-12-28T05:02:46.959Z,990.22
2017-12-28T05:03:12.516Z,990.26
2017-12-28T05:03:38.076Z,990.29
2017-12-28T05:04:03.635Z,990.26
2017-12-28T05:04:29.272Z,990.25
2017-12-28T05:04:54.827Z,990.26
2017-12-28T05:05:20.413Z,990.24
2017-12-28T05:05:45.977Z,990.23
2017-12-28T05:06:11.541Z,990.23
2017-12-28T05:06:37.132Z,990.25
2017-12-28T05:07:02.700Z,990.27
2017-12-28T05:07:28.276Z,990.24
2017-12-28T05:07:53.840Z,990.24
2017-12-28T05:08:19.372Z,990.29
2017-12-28T05:08:44.933Z,990.33
2017-12-28T05:09:10.494Z,990.28
2017-12-28T05:09:36.061Z,990.33
2017-12-28T05:10:01.644Z,990.3
2017-12-28T05:10:27.314Z,990.33
2017-12-28T05:10:52.968Z,990.35
2017-12-28T05:11:18.530Z,990.36
2017-12-28T05:11:44.083Z,990.36
2017-12-28T05:12:09.651Z,990.37
2017-12-28T05:12:35.195Z,990.45
2017-12-28T05:13:00.777Z,990.43
2017-12-28T05:13:26.332Z,990.43
2017-12-28T05:13:51.932Z,990.45
2017-12-28T05:14:17.517Z,990.46
2017-12-28T05:14:43.069Z,990.45
2017-12-28T05:15:08.631Z,990.44
2017-12-28T05:15:34.223Z,990.45
2017-12-28T05:16:48.406Z,990.49
2017-12-28T05:17:14.071Z,990.46
2017-12-28T05:17:39.633Z,990.44
2017-12-28T05:18:05.179Z,990.48
2017-12-28T05:18:30.830Z,990.49
2017-12-28T05:18:56.417Z,990.48
2017-12-28T05:19:21.968Z,990.51
2017-12-28T05:19:47.516Z,990.5
2017-12-28T05:20:13.074Z,990.54
2017-12-28T05:20:38.633Z,990.52
2017-12-28T05:21:04.301Z,990.5
2017-12-28T05:21:29.875Z,990.51
2017-12-28T05:21:55.444Z,990.52
2017-12-28T05:22:21.037Z,990.55